sensor_id;sensor_type;location;lat;lon;timestamp;P1;durP1;ratioP1;P2;durP2;ratioP2
63312;SDS011;49442;45.640;13.812;2022-09-06T00:02:13;3.25;;;1.95;;
63312;SDS011;49442;45.640;13.812;2022-09-06T00:04:39;4.70;;;1.70;;
63312;SDS011;49442;45.640;13.812;2022-09-06T00:07:05;3.13;;;1.60;;
63312;SDS011;49442;45.640;13.812;2022-09-06T00:09:31;4.20;;;1.45;;
63312;SDS011;49442;45.640;13.812;2022-09-06T00:11:56;6.65;;;1.85;;
63312;SDS011;49442;45.640;13.812;2022-09-06T00:14:22;4.05;;;1.73;;
63312;SDS011;49442;45.640;13.812;2022-09-06T00:16:48;3.63;;;1.90;;
63312;SDS011;49442;45.640;13.812;2022-09-06T00:19:13;2.65;;;1.45;;
63312;SDS011;49442;45.640;13.812;2022-09-06T00:21:39;1.85;;;1.65;;
63312;SDS011;49442;45.640;13.812;2022-09-06T00:24:05;1.50;;;1.40;;
63312;SDS011;49442;45.640;13.812;2022-09-06T00:26:30;4.15;;;1.67;;
63312;SDS011;49442;45.640;13.812;2022-09-06T00:28:56;1.65;;;1.45;;
63312;SDS011;49442;45.640;13.812;2022-09-06T00:31:23;2.17;;;1.52;;
63312;SDS011;49442;45.640;13.812;2022-09-06T00:33:50;4.60;;;1.63;;
63312;SDS011;49442;45.640;13.812;2022-09-06T00:36:16;2.33;;;1.55;;
63312;SDS011;49442;45.640;13.812;2022-09-06T00:38:43;2.38;;;1.95;;
63312;SDS011;49442;45.640;13.812;2022-09-06T00:41:10;5.28;;;1.60;;
63312;SDS011;49442;45.640;13.812;2022-09-06T00:43:36;2.45;;;1.40;;
63312;SDS011;49442;45.640;13.812;2022-09-06T00:46:04;2.55;;;1.45;;
63312;SDS011;49442;45.640;13.812;2022-09-06T00:48:31;3.80;;;1.67;;
63312;SDS011;49442;45.640;13.812;2022-09-06T00:50:59;3.47;;;1.70;;
63312;SDS011;49442;45.640;13.812;2022-09-06T00:53:28;2.63;;;1.60;;
63312;SDS011;49442;45.640;13.812;2022-09-06T00:55:55;4.20;;;2.08;;
63312;SDS011;49442;45.640;13.812;2022-09-06T00:58:21;3.38;;;2.00;;
63312;SDS011;49442;45.640;13.812;2022-09-06T01:00:48;1.92;;;1.50;;
63312;SDS011;49442;45.640;13.812;2022-09-06T01:03:14;3.75;;;1.83;;
63312;SDS011;49442;45.640;13.812;2022-09-06T01:05:42;4.10;;;1.77;;
63312;SDS011;49442;45.640;13.812;2022-09-06T01:30:28;4.43;;;1.88;;
63312;SDS011;49442;45.640;13.812;2022-09-06T01:33:13;1.95;;;1.55;;
63312;SDS011;49442;45.640;13.812;2022-09-06T01:35:54;3.58;;;1.95;;
63312;SDS011;49442;45.640;13.812;2022-09-06T01:38:22;4.32;;;1.98;;
63312;SDS011;49442;45.640;13.812;2022-09-06T01:40:48;4.68;;;1.70;;
63312;SDS011;49442;45.640;13.812;2022-09-06T01:43:17;1.95;;;1.63;;
63312;SDS011;49442;45.640;13.812;2022-09-06T01:46:02;7.82;;;2.00;;
63312;SDS011;49442;45.640;13.812;2022-09-06T01:51:17;4.68;;;1.50;;
63312;SDS011;49442;45.640;13.812;2022-09-06T02:02:46;1.92;;;1.60;;
63312;SDS011;49442;45.640;13.812;2022-09-06T02:08:00;4.10;;;1.90;;
63312;SDS011;49442;45.640;13.812;2022-09-06T02:10:36;2.80;;;1.73;;
63312;SDS011;49442;45.640;13.812;2022-09-06T02:13:09;4.15;;;1.67;;
63312;SDS011;49442;45.640;13.812;2022-09-06T02:15:38;3.00;;;1.85;;
63312;SDS011;49442;45.640;13.812;2022-09-06T02:20:50;1.98;;;1.67;;
63312;SDS011;49442;45.640;13.812;2022-09-06T02:23:19;2.00;;;1.80;;
63312;SDS011;49442;45.640;13.812;2022-09-06T02:25:50;2.05;;;1.80;;
63312;SDS011;49442;45.640;13.812;2022-09-06T02:28:19;4.40;;;1.90;;
63312;SDS011;49442;45.640;13.812;2022-09-06T02:30:47;2.05;;;1.60;;
63312;SDS011;49442;45.640;13.812;2022-09-06T02:33:16;2.20;;;1.65;;
63312;SDS011;49442;45.640;13.812;2022-09-06T02:35:49;4.65;;;1.83;;
63312;SDS011;49442;45.640;13.812;2022-09-06T02:38:17;3.03;;;1.85;;
63312;SDS011;49442;45.640;13.812;2022-09-06T02:40:44;5.20;;;1.70;;
63312;SDS011;49442;45.640;13.812;2022-09-06T02:43:11;3.55;;;2.05;;
63312;SDS011;49442;45.640;13.812;2022-09-06T02:45:37;2.58;;;1.88;;
63312;SDS011;49442;45.640;13.812;2022-09-06T02:48:03;4.03;;;1.88;;
63312;SDS011;49442;45.640;13.812;2022-09-06T02:50:29;2.88;;;1.92;;
63312;SDS011;49442;45.640;13.812;2022-09-06T02:53:04;1.92;;;1.63;;
63312;SDS011;49442;45.640;13.812;2022-09-06T02:55:31;2.63;;;1.58;;
63312;SDS011;49442;45.640;13.812;2022-09-06T02:57:57;3.38;;;2.17;;
63312;SDS011;49442;45.640;13.812;2022-09-06T03:00:23;4.60;;;1.90;;
63312;SDS011;49442;45.640;13.812;2022-09-06T03:02:49;1.70;;;1.60;;
63312;SDS011;49442;45.640;13.812;2022-09-06T03:05:15;3.35;;;1.90;;
63312;SDS011;49442;45.640;13.812;2022-09-06T03:07:41;7.75;;;1.95;;
63312;SDS011;49442;45.640;13.812;2022-09-06T03:10:07;3.13;;;1.85;;
63312;SDS011;49442;45.640;13.812;2022-09-06T03:12:33;4.47;;;1.95;;
63312;SDS011;49442;45.640;13.812;2022-09-06T03:14:58;2.38;;;1.80;;
63312;SDS011;49442;45.640;13.812;2022-09-06T03:17:24;2.00;;;1.52;;
63312;SDS011;49442;45.640;13.812;2022-09-06T03:19:50;3.45;;;1.90;;
63312;SDS011;49442;45.640;13.812;2022-09-06T03:22:16;3.00;;;1.50;;
63312;SDS011;49442;45.640;13.812;2022-09-06T03:24:41;3.85;;;1.88;;
63312;SDS011;49442;45.640;13.812;2022-09-06T03:27:07;4.45;;;2.28;;
63312;SDS011;49442;45.640;13.812;2022-09-06T03:29:33;6.05;;;1.83;;
63312;SDS011;49442;45.640;13.812;2022-09-06T03:31:59;5.22;;;2.47;;
63312;SDS011;49442;45.640;13.812;2022-09-06T03:34:24;6.10;;;2.13;;
63312;SDS011;49442;45.640;13.812;2022-09-06T03:36:50;4.28;;;2.03;;
63312;SDS011;49442;45.640;13.812;2022-09-06T03:39:15;3.70;;;1.80;;
63312;SDS011;49442;45.640;13.812;2022-09-06T03:41:41;2.47;;;1.88;;
63312;SDS011;49442;45.640;13.812;2022-09-06T03:44:07;2.80;;;1.80;;
63312;SDS011;49442;45.640;13.812;2022-09-06T03:46:32;5.20;;;2.15;;
63312;SDS011;49442;45.640;13.812;2022-09-06T03:48:58;5.70;;;1.88;;
63312;SDS011;49442;45.640;13.812;2022-09-06T03:51:25;2.20;;;1.70;;
63312;SDS011;49442;45.640;13.812;2022-09-06T03:53:51;4.13;;;1.90;;
63312;SDS011;49442;45.640;13.812;2022-09-06T03:56:18;2.53;;;2.05;;
63312;SDS011;49442;45.640;13.812;2022-09-06T03:58:44;2.00;;;1.73;;
63312;SDS011;49442;45.640;13.812;2022-09-06T04:01:10;2.70;;;1.90;;
63312;SDS011;49442;45.640;13.812;2022-09-06T04:03:37;4.07;;;2.67;;
63312;SDS011;49442;45.640;13.812;2022-09-06T04:06:03;6.45;;;1.83;;
63312;SDS011;49442;45.640;13.812;2022-09-06T04:08:30;3.92;;;2.00;;
63312;SDS011;49442;45.640;13.812;2022-09-06T04:10:57;3.80;;;1.80;;
63312;SDS011;49442;45.640;13.812;2022-09-06T04:13:24;2.22;;;1.73;;
63312;SDS011;49442;45.640;13.812;2022-09-06T04:15:51;6.03;;;2.17;;
63312;SDS011;49442;45.640;13.812;2022-09-06T04:18:17;3.00;;;1.85;;
63312;SDS011;49442;45.640;13.812;2022-09-06T04:20:47;6.03;;;2.17;;
63312;SDS011;49442;45.640;13.812;2022-09-06T04:23:14;3.35;;;1.80;;
63312;SDS011;49442;45.640;13.812;2022-09-06T04:25:43;5.13;;;2.30;;
63312;SDS011;49442;45.640;13.812;2022-09-06T04:28:10;3.40;;;1.60;;
63312;SDS011;49442;45.640;13.812;2022-09-06T04:30:36;5.30;;;2.20;;
63312;SDS011;49442;45.640;13.812;2022-09-06T04:33:01;3.17;;;1.75;;
63312;SDS011;49442;45.640;13.812;2022-09-06T04:35:27;3.90;;;1.67;;
63312;SDS011;49442;45.640;13.812;2022-09-06T04:37:53;2.97;;;1.90;;
63312;SDS011;49442;45.640;13.812;2022-09-06T04:40:18;4.70;;;2.10;;
63312;SDS011;49442;45.640;13.812;2022-09-06T04:42:44;6.00;;;1.70;;
63312;SDS011;49442;45.640;13.812;2022-09-06T04:45:10;2.55;;;1.60;;
63312;SDS011;49442;45.640;13.812;2022-09-06T04:47:36;3.78;;;2.03;;
63312;SDS011;49442;45.640;13.812;2022-09-06T04:50:01;8.57;;;2.22;;
63312;SDS011;49442;45.640;13.812;2022-09-06T04:52:27;6.30;;;2.80;;
63312;SDS011;49442;45.640;13.812;2022-09-06T04:54:53;4.50;;;2.40;;
63312;SDS011;49442;45.640;13.812;2022-09-06T04:57:19;4.85;;;2.47;;
63312;SDS011;49442;45.640;13.812;2022-09-06T04:59:44;3.33;;;2.70;;
63312;SDS011;49442;45.640;13.812;2022-09-06T05:02:10;6.85;;;2.58;;
63312;SDS011;49442;45.640;13.812;2022-09-06T05:04:36;8.32;;;2.50;;
63312;SDS011;49442;45.640;13.812;2022-09-06T05:07:02;11.68;;;2.85;;
63312;SDS011;49442;45.640;13.812;2022-09-06T05:09:29;26.80;;;3.42;;
63312;SDS011;49442;45.640;13.812;2022-09-06T05:11:56;8.15;;;2.15;;
63312;SDS011;49442;45.640;13.812;2022-09-06T05:14:22;7.30;;;2.42;;
63312;SDS011;49442;45.640;13.812;2022-09-06T05:16:48;8.43;;;2.20;;
63312;SDS011;49442;45.640;13.812;2022-09-06T05:19:14;3.60;;;2.40;;
63312;SDS011;49442;45.640;13.812;2022-09-06T05:21:40;6.30;;;2.30;;
63312;SDS011;49442;45.640;13.812;2022-09-06T05:24:06;3.05;;;2.17;;
63312;SDS011;49442;45.640;13.812;2022-09-06T05:26:32;7.80;;;2.20;;
63312;SDS011;49442;45.640;13.812;2022-09-06T05:28:57;5.90;;;2.30;;
63312;SDS011;49442;45.640;13.812;2022-09-06T05:31:24;6.85;;;2.00;;
63312;SDS011;49442;45.640;13.812;2022-09-06T05:36:21;18.67;;;3.08;;
63312;SDS011;49442;45.640;13.812;2022-09-06T05:38:51;11.88;;;2.85;;
63312;SDS011;49442;45.640;13.812;2022-09-06T05:41:18;9.13;;;2.45;;
63312;SDS011;49442;45.640;13.812;2022-09-06T05:43:44;5.07;;;2.20;;
63312;SDS011;49442;45.640;13.812;2022-09-06T05:46:10;7.63;;;1.92;;
63312;SDS011;49442;45.640;13.812;2022-09-06T05:48:37;5.40;;;2.17;;
63312;SDS011;49442;45.640;13.812;2022-09-06T05:51:04;9.27;;;3.08;;
63312;SDS011;49442;45.640;13.812;2022-09-06T05:53:35;14.70;;;2.20;;
63312;SDS011;49442;45.640;13.812;2022-09-06T05:56:03;14.27;;;2.13;;
63312;SDS011;49442;45.640;13.812;2022-09-06T05:58:29;8.70;;;2.28;;
63312;SDS011;49442;45.640;13.812;2022-09-06T06:01:12;4.43;;;2.08;;
63312;SDS011;49442;45.640;13.812;2022-09-06T06:03:40;4.22;;;1.95;;
63312;SDS011;49442;45.640;13.812;2022-09-06T06:06:07;2.85;;;1.85;;
63312;SDS011;49442;45.640;13.812;2022-09-06T06:08:33;13.50;;;2.15;;
63312;SDS011;49442;45.640;13.812;2022-09-06T06:10:59;16.77;;;2.03;;
63312;SDS011;49442;45.640;13.812;2022-09-06T06:13:26;6.53;;;1.55;;
63312;SDS011;49442;45.640;13.812;2022-09-06T06:15:59;4.68;;;1.60;;
63312;SDS011;49442;45.640;13.812;2022-09-06T06:18:25;3.58;;;1.90;;
63312;SDS011;49442;45.640;13.812;2022-09-06T06:20:51;6.68;;;2.03;;
63312;SDS011;49442;45.640;13.812;2022-09-06T06:23:17;5.43;;;1.88;;
63312;SDS011;49442;45.640;13.812;2022-09-06T06:25:42;11.65;;;2.55;;
63312;SDS011;49442;45.640;13.812;2022-09-06T06:28:08;14.55;;;3.22;;
63312;SDS011;49442;45.640;13.812;2022-09-06T06:30:34;12.15;;;1.77;;
63312;SDS011;49442;45.640;13.812;2022-09-06T06:32:59;10.82;;;2.10;;
63312;SDS011;49442;45.640;13.812;2022-09-06T06:35:26;6.28;;;2.38;;
63312;SDS011;49442;45.640;13.812;2022-09-06T06:37:52;3.22;;;1.58;;
63312;SDS011;49442;45.640;13.812;2022-09-06T06:40:17;5.68;;;1.88;;
63312;SDS011;49442;45.640;13.812;2022-09-06T06:42:43;3.45;;;1.45;;
63312;SDS011;49442;45.640;13.812;2022-09-06T06:45:09;4.10;;;1.52;;
63312;SDS011;49442;45.640;13.812;2022-09-06T06:47:34;4.30;;;1.80;;
63312;SDS011;49442;45.640;13.812;2022-09-06T06:50:00;5.75;;;1.50;;
63312;SDS011;49442;45.640;13.812;2022-09-06T06:52:26;5.68;;;1.63;;
63312;SDS011;49442;45.640;13.812;2022-09-06T06:54:52;5.82;;;1.42;;
63312;SDS011;49442;45.640;13.812;2022-09-06T06:57:17;2.65;;;1.35;;
63312;SDS011;49442;45.640;13.812;2022-09-06T06:59:43;6.68;;;1.80;;
63312;SDS011;49442;45.640;13.812;2022-09-06T07:02:09;2.30;;;1.55;;
63312;SDS011;49442;45.640;13.812;2022-09-06T07:04:34;5.65;;;1.85;;
63312;SDS011;49442;45.640;13.812;2022-09-06T07:07:00;4.85;;;1.95;;
63312;SDS011;49442;45.640;13.812;2022-09-06T07:09:26;4.03;;;1.80;;
63312;SDS011;49442;45.640;13.812;2022-09-06T07:11:52;6.38;;;1.70;;
63312;SDS011;49442;45.640;13.812;2022-09-06T07:14:17;4.90;;;1.73;;
63312;SDS011;49442;45.640;13.812;2022-09-06T07:16:43;5.38;;;1.90;;
63312;SDS011;49442;45.640;13.812;2022-09-06T07:19:10;6.72;;;1.95;;
63312;SDS011;49442;45.640;13.812;2022-09-06T07:21:36;7.57;;;2.13;;
63312;SDS011;49442;45.640;13.812;2022-09-06T07:24:02;4.00;;;2.20;;
63312;SDS011;49442;45.640;13.812;2022-09-06T07:26:31;8.55;;;2.42;;
63312;SDS011;49442;45.640;13.812;2022-09-06T07:28:58;4.50;;;2.25;;
63312;SDS011;49442;45.640;13.812;2022-09-06T07:31:26;11.85;;;2.95;;
63312;SDS011;49442;45.640;13.812;2022-09-06T07:33:53;10.40;;;2.85;;
63312;SDS011;49442;45.640;13.812;2022-09-06T07:36:18;9.75;;;2.33;;
63312;SDS011;49442;45.640;13.812;2022-09-06T07:38:48;11.07;;;2.30;;
63312;SDS011;49442;45.640;13.812;2022-09-06T07:41:14;8.32;;;2.22;;
63312;SDS011;49442;45.640;13.812;2022-09-06T07:43:41;4.53;;;2.20;;
63312;SDS011;49442;45.640;13.812;2022-09-06T07:46:10;3.35;;;1.75;;
63312;SDS011;49442;45.640;13.812;2022-09-06T07:48:38;5.43;;;1.90;;
63312;SDS011;49442;45.640;13.812;2022-09-06T07:51:09;5.55;;;2.20;;
63312;SDS011;49442;45.640;13.812;2022-09-06T07:53:43;4.25;;;2.03;;
63312;SDS011;49442;45.640;13.812;2022-09-06T07:56:14;10.18;;;2.63;;
63312;SDS011;49442;45.640;13.812;2022-09-06T07:58:40;5.70;;;2.83;;
63312;SDS011;49442;45.640;13.812;2022-09-06T08:01:25;5.20;;;1.80;;
63312;SDS011;49442;45.640;13.812;2022-09-06T08:03:52;3.00;;;2.13;;
63312;SDS011;49442;45.640;13.812;2022-09-06T08:06:18;4.05;;;1.92;;
63312;SDS011;49442;45.640;13.812;2022-09-06T08:08:46;6.90;;;2.20;;
63312;SDS011;49442;45.640;13.812;2022-09-06T08:11:12;9.00;;;2.65;;
63312;SDS011;49442;45.640;13.812;2022-09-06T08:13:38;9.85;;;2.70;;
63312;SDS011;49442;45.640;13.812;2022-09-06T08:16:05;8.20;;;2.83;;
63312;SDS011;49442;45.640;13.812;2022-09-06T08:18:33;6.85;;;2.78;;
63312;SDS011;49442;45.640;13.812;2022-09-06T08:21:09;7.93;;;2.92;;
63312;SDS011;49442;45.640;13.812;2022-09-06T08:23:37;8.95;;;3.15;;
63312;SDS011;49442;45.640;13.812;2022-09-06T08:26:06;7.15;;;2.80;;
63312;SDS011;49442;45.640;13.812;2022-09-06T08:28:33;12.40;;;3.53;;
63312;SDS011;49442;45.640;13.812;2022-09-06T08:31:08;6.95;;;3.10;;
63312;SDS011;49442;45.640;13.812;2022-09-06T08:33:36;7.13;;;2.92;;
63312;SDS011;49442;45.640;13.812;2022-09-06T08:36:02;11.55;;;2.92;;
63312;SDS011;49442;45.640;13.812;2022-09-06T08:38:28;7.60;;;2.85;;
63312;SDS011;49442;45.640;13.812;2022-09-06T08:41:04;9.13;;;3.08;;
63312;SDS011;49442;45.640;13.812;2022-09-06T08:43:32;7.93;;;2.60;;
63312;SDS011;49442;45.640;13.812;2022-09-06T08:45:58;4.50;;;2.60;;
63312;SDS011;49442;45.640;13.812;2022-09-06T08:48:25;4.68;;;2.55;;
63312;SDS011;49442;45.640;13.812;2022-09-06T08:50:58;5.90;;;2.40;;
63312;SDS011;49442;45.640;13.812;2022-09-06T08:53:43;4.28;;;2.83;;
63312;SDS011;49442;45.640;13.812;2022-09-06T08:59:02;6.00;;;1.83;;
63312;SDS011;49442;45.640;13.812;2022-09-06T09:01:39;10.35;;;1.90;;
63312;SDS011;49442;45.640;13.812;2022-09-06T09:04:25;7.82;;;2.40;;
63312;SDS011;49442;45.640;13.812;2022-09-06T09:06:56;9.13;;;2.42;;
63312;SDS011;49442;45.640;13.812;2022-09-06T09:09:30;5.43;;;2.25;;
63312;SDS011;49442;45.640;13.812;2022-09-06T09:11:57;9.32;;;2.50;;
63312;SDS011;49442;45.640;13.812;2022-09-06T09:14:28;15.15;;;2.72;;
63312;SDS011;49442;45.640;13.812;2022-09-06T09:17:03;5.40;;;2.13;;
63312;SDS011;49442;45.640;13.812;2022-09-06T09:19:50;4.20;;;2.30;;
63312;SDS011;49442;45.640;13.812;2022-09-06T09:22:16;4.97;;;2.28;;
63312;SDS011;49442;45.640;13.812;2022-09-06T09:24:43;4.32;;;2.20;;
63312;SDS011;49442;45.640;13.812;2022-09-06T09:27:11;3.67;;;2.13;;
63312;SDS011;49442;45.640;13.812;2022-09-06T09:32:38;5.75;;;2.15;;
63312;SDS011;49442;45.640;13.812;2022-09-06T09:38:11;7.13;;;1.88;;
63312;SDS011;49442;45.640;13.812;2022-09-06T09:43:22;10.05;;;1.80;;
63312;SDS011;49442;45.640;13.812;2022-09-06T09:49:05;2.47;;;1.38;;
63312;SDS011;49442;45.640;13.812;2022-09-06T09:51:43;4.38;;;2.20;;
63312;SDS011;49442;45.640;13.812;2022-09-06T09:54:30;6.75;;;1.70;;
63312;SDS011;49442;45.640;13.812;2022-09-06T09:56:57;8.18;;;1.83;;
63312;SDS011;49442;45.640;13.812;2022-09-06T10:01:49;3.08;;;1.50;;
63312;SDS011;49442;45.640;13.812;2022-09-06T10:07:21;3.42;;;1.50;;
63312;SDS011;49442;45.640;13.812;2022-09-06T10:09:49;3.83;;;1.40;;
63312;SDS011;49442;45.640;13.812;2022-09-06T10:12:37;6.22;;;1.70;;
63312;SDS011;49442;45.640;13.812;2022-09-06T10:15:05;6.85;;;1.85;;
63312;SDS011;49442;45.640;13.812;2022-09-06T10:17:36;7.15;;;2.20;;
63312;SDS011;49442;45.640;13.812;2022-09-06T10:20:12;7.90;;;2.10;;
63312;SDS011;49442;45.640;13.812;2022-09-06T10:36:00;4.72;;;2.53;;
63312;SDS011;49442;45.640;13.812;2022-09-06T10:38:34;5.28;;;2.10;;
63312;SDS011;49442;45.640;13.812;2022-09-06T10:44:53;3.92;;;2.20;;
63312;SDS011;49442;45.640;13.812;2022-09-06T10:47:53;4.60;;;1.77;;
63312;SDS011;49442;45.640;13.812;2022-09-06T10:50:19;9.65;;;1.70;;
63312;SDS011;49442;45.640;13.812;2022-09-06T10:52:47;4.18;;;1.27;;
63312;SDS011;49442;45.640;13.812;2022-09-06T10:55:16;2.83;;;1.95;;
63312;SDS011;49442;45.640;13.812;2022-09-06T11:00:17;2.58;;;1.70;;
63312;SDS011;49442;45.640;13.812;2022-09-06T11:05:35;3.70;;;1.83;;
63312;SDS011;49442;45.640;13.812;2022-09-06T11:08:09;3.10;;;1.77;;
63312;SDS011;49442;45.640;13.812;2022-09-06T11:10:40;1.88;;;1.50;;
63312;SDS011;49442;45.640;13.812;2022-09-06T11:13:16;2.35;;;1.63;;
63312;SDS011;49442;45.640;13.812;2022-09-06T11:18:18;2.60;;;1.73;;
63312;SDS011;49442;45.640;13.812;2022-09-06T11:27:26;2.28;;;1.67;;
63312;SDS011;49442;45.640;13.812;2022-09-06T11:30:00;2.85;;;1.75;;
63312;SDS011;49442;45.640;13.812;2022-09-06T11:32:31;2.33;;;1.50;;
63312;SDS011;49442;45.640;13.812;2022-09-06T11:35:03;5.25;;;1.92;;
63312;SDS011;49442;45.640;13.812;2022-09-06T11:37:35;2.75;;;1.73;;
63312;SDS011;49442;45.640;13.812;2022-09-06T11:55:36;1.63;;;1.40;;
63312;SDS011;49442;45.640;13.812;2022-09-06T12:00:42;1.80;;;1.23;;
63312;SDS011;49442;45.640;13.812;2022-09-06T12:03:09;1.85;;;1.50;;
63312;SDS011;49442;45.640;13.812;2022-09-06T12:08:46;3.35;;;1.83;;
63312;SDS011;49442;45.640;13.812;2022-09-06T12:11:21;1.83;;;1.40;;
63312;SDS011;49442;45.640;13.812;2022-09-06T12:13:50;1.70;;;1.42;;
63312;SDS011;49442;45.640;13.812;2022-09-06T12:27:54;2.35;;;1.67;;
63312;SDS011;49442;45.640;13.812;2022-09-06T12:33:15;2.65;;;1.35;;
63312;SDS011;49442;45.640;13.812;2022-09-06T12:39:01;2.35;;;1.50;;
63312;SDS011;49442;45.640;13.812;2022-09-06T12:41:37;2.20;;;1.48;;
63312;SDS011;49442;45.640;13.812;2022-09-06T12:44:04;3.97;;;1.55;;
63312;SDS011;49442;45.640;13.812;2022-09-06T12:46:31;5.00;;;1.70;;
63312;SDS011;49442;45.640;13.812;2022-09-06T12:48:59;4.65;;;1.50;;
63312;SDS011;49442;45.640;13.812;2022-09-06T12:51:30;2.38;;;1.60;;
63312;SDS011;49442;45.640;13.812;2022-09-06T12:53:57;4.53;;;1.77;;
63312;SDS011;49442;45.640;13.812;2022-09-06T12:56:25;1.50;;;1.40;;
63312;SDS011;49442;45.640;13.812;2022-09-06T12:58:52;3.72;;;1.73;;
63312;SDS011;49442;45.640;13.812;2022-09-06T13:01:33;3.25;;;1.30;;
63312;SDS011;49442;45.640;13.812;2022-09-06T13:04:08;5.03;;;1.90;;
63312;SDS011;49442;45.640;13.812;2022-09-06T13:06:41;2.80;;;1.60;;
63312;SDS011;49442;45.640;13.812;2022-09-06T13:09:10;3.67;;;1.73;;
63312;SDS011;49442;45.640;13.812;2022-09-06T13:11:43;4.90;;;2.00;;
63312;SDS011;49442;45.640;13.812;2022-09-06T13:14:19;2.28;;;1.50;;
63312;SDS011;49442;45.640;13.812;2022-09-06T13:16:48;3.72;;;1.67;;
63312;SDS011;49442;45.640;13.812;2022-09-06T13:19:32;2.47;;;1.60;;
63312;SDS011;49442;45.640;13.812;2022-09-06T13:22:00;2.25;;;1.60;;
63312;SDS011;49442;45.640;13.812;2022-09-06T13:26:59;3.35;;;1.50;;
63312;SDS011;49442;45.640;13.812;2022-09-06T13:29:29;6.28;;;1.60;;
63312;SDS011;49442;45.640;13.812;2022-09-06T13:31:57;3.83;;;1.50;;
63312;SDS011;49442;45.640;13.812;2022-09-06T13:34:31;1.60;;;1.23;;
63312;SDS011;49442;45.640;13.812;2022-09-06T13:37:02;2.38;;;1.38;;
63312;SDS011;49442;45.640;13.812;2022-09-06T13:39:40;2.20;;;1.40;;
63312;SDS011;49442;45.640;13.812;2022-09-06T13:42:21;3.38;;;1.98;;
63312;SDS011;49442;45.640;13.812;2022-09-06T13:44:47;2.80;;;1.40;;
63312;SDS011;49442;45.640;13.812;2022-09-06T13:47:14;4.63;;;1.42;;
63312;SDS011;49442;45.640;13.812;2022-09-06T13:49:41;4.03;;;1.40;;
63312;SDS011;49442;45.640;13.812;2022-09-06T13:52:06;3.42;;;1.30;;
63312;SDS011;49442;45.640;13.812;2022-09-06T13:54:32;1.90;;;1.10;;
63312;SDS011;49442;45.640;13.812;2022-09-06T13:56:58;1.48;;;1.25;;
63312;SDS011;49442;45.640;13.812;2022-09-06T13:59:25;2.08;;;1.60;;
63312;SDS011;49442;45.640;13.812;2022-09-06T14:01:58;3.25;;;1.25;;
63312;SDS011;49442;45.640;13.812;2022-09-06T14:04:27;1.90;;;1.50;;
63312;SDS011;49442;45.640;13.812;2022-09-06T14:06:53;2.08;;;1.20;;
63312;SDS011;49442;45.640;13.812;2022-09-06T14:09:19;2.00;;;1.40;;
63312;SDS011;49442;45.640;13.812;2022-09-06T14:11:45;2.70;;;1.52;;
63312;SDS011;49442;45.640;13.812;2022-09-06T14:14:11;5.95;;;1.20;;
63312;SDS011;49442;45.640;13.812;2022-09-06T14:16:37;1.73;;;1.20;;
63312;SDS011;49442;45.640;13.812;2022-09-06T14:19:03;4.45;;;1.30;;
63312;SDS011;49442;45.640;13.812;2022-09-06T14:21:29;5.55;;;1.95;;
63312;SDS011;49442;45.640;13.812;2022-09-06T14:23:55;5.05;;;1.48;;
63312;SDS011;49442;45.640;13.812;2022-09-06T14:26:22;4.20;;;1.48;;
63312;SDS011;49442;45.640;13.812;2022-09-06T14:28:48;2.17;;;1.65;;
63312;SDS011;49442;45.640;13.812;2022-09-06T14:31:15;3.47;;;1.60;;
63312;SDS011;49442;45.640;13.812;2022-09-06T14:33:46;1.70;;;1.50;;
63312;SDS011;49442;45.640;13.812;2022-09-06T14:36:14;4.18;;;1.70;;
63312;SDS011;49442;45.640;13.812;2022-09-06T14:38:41;2.90;;;1.70;;
63312;SDS011;49442;45.640;13.812;2022-09-06T14:41:10;4.60;;;1.70;;
63312;SDS011;49442;45.640;13.812;2022-09-06T14:43:42;2.42;;;1.52;;
63312;SDS011;49442;45.640;13.812;2022-09-06T14:46:12;4.82;;;1.50;;
63312;SDS011;49442;45.640;13.812;2022-09-06T14:48:38;2.42;;;1.80;;
63312;SDS011;49442;45.640;13.812;2022-09-06T14:51:06;2.17;;;1.50;;
63312;SDS011;49442;45.640;13.812;2022-09-06T14:53:32;3.53;;;1.58;;
63312;SDS011;49442;45.640;13.812;2022-09-06T14:56:02;3.90;;;1.70;;
63312;SDS011;49442;45.640;13.812;2022-09-06T14:58:32;4.82;;;1.80;;
63312;SDS011;49442;45.640;13.812;2022-09-06T15:01:08;8.02;;;2.13;;
63312;SDS011;49442;45.640;13.812;2022-09-06T15:03:38;7.45;;;2.05;;
63312;SDS011;49442;45.640;13.812;2022-09-06T15:06:04;5.38;;;2.20;;
63312;SDS011;49442;45.640;13.812;2022-09-06T15:08:32;3.58;;;1.90;;
63312;SDS011;49442;45.640;13.812;2022-09-06T15:10:57;3.22;;;1.67;;
63312;SDS011;49442;45.640;13.812;2022-09-06T15:13:23;3.17;;;1.95;;
63312;SDS011;49442;45.640;13.812;2022-09-06T15:15:51;2.25;;;1.65;;
63312;SDS011;49442;45.640;13.812;2022-09-06T15:18:17;2.20;;;1.63;;
63312;SDS011;49442;45.640;13.812;2022-09-06T15:20:43;3.38;;;2.00;;
63312;SDS011;49442;45.640;13.812;2022-09-06T15:23:10;4.90;;;2.00;;
63312;SDS011;49442;45.640;13.812;2022-09-06T15:25:36;3.50;;;2.00;;
63312;SDS011;49442;45.640;13.812;2022-09-06T15:28:02;3.65;;;1.60;;
63312;SDS011;49442;45.640;13.812;2022-09-06T15:30:28;2.20;;;1.83;;
63312;SDS011;49442;45.640;13.812;2022-09-06T15:32:54;7.18;;;2.30;;
63312;SDS011;49442;45.640;13.812;2022-09-06T15:35:19;5.78;;;2.17;;
63312;SDS011;49442;45.640;13.812;2022-09-06T15:37:46;6.10;;;2.08;;
63312;SDS011;49442;45.640;13.812;2022-09-06T15:40:12;3.72;;;1.90;;
63312;SDS011;49442;45.640;13.812;2022-09-06T15:42:38;4.97;;;2.20;;
63312;SDS011;49442;45.640;13.812;2022-09-06T15:45:04;4.53;;;2.40;;
63312;SDS011;49442;45.640;13.812;2022-09-06T15:47:30;5.13;;;2.33;;
63312;SDS011;49442;45.640;13.812;2022-09-06T15:49:59;5.20;;;2.10;;
63312;SDS011;49442;45.640;13.812;2022-09-06T15:52:26;4.90;;;2.20;;
63312;SDS011;49442;45.640;13.812;2022-09-06T15:54:52;9.23;;;2.80;;
63312;SDS011;49442;45.640;13.812;2022-09-06T15:57:36;3.28;;;2.13;;
63312;SDS011;49442;45.640;13.812;2022-09-06T16:00:02;3.50;;;2.35;;
63312;SDS011;49442;45.640;13.812;2022-09-06T16:02:28;3.83;;;1.88;;
63312;SDS011;49442;45.640;13.812;2022-09-06T16:04:54;2.03;;;1.75;;
63312;SDS011;49442;45.640;13.812;2022-09-06T16:07:20;4.35;;;1.90;;
63312;SDS011;49442;45.640;13.812;2022-09-06T16:09:45;3.72;;;2.10;;
63312;SDS011;49442;45.640;13.812;2022-09-06T16:12:11;3.53;;;2.00;;
63312;SDS011;49442;45.640;13.812;2022-09-06T16:14:37;5.03;;;2.00;;
63312;SDS011;49442;45.640;13.812;2022-09-06T16:17:02;5.18;;;2.45;;
63312;SDS011;49442;45.640;13.812;2022-09-06T16:19:28;2.78;;;2.22;;
63312;SDS011;49442;45.640;13.812;2022-09-06T16:21:54;4.22;;;2.53;;
63312;SDS011;49442;45.640;13.812;2022-09-06T16:24:20;5.28;;;2.20;;
63312;SDS011;49442;45.640;13.812;2022-09-06T16:26:46;5.05;;;1.95;;
63312;SDS011;49442;45.640;13.812;2022-09-06T16:29:13;5.35;;;2.17;;
63312;SDS011;49442;45.640;13.812;2022-09-06T16:31:40;4.47;;;2.25;;
63312;SDS011;49442;45.640;13.812;2022-09-06T16:34:07;3.35;;;1.80;;
63312;SDS011;49442;45.640;13.812;2022-09-06T16:36:33;3.28;;;1.98;;
63312;SDS011;49442;45.640;13.812;2022-09-06T16:38:59;4.55;;;2.50;;
63312;SDS011;49442;45.640;13.812;2022-09-06T16:41:44;6.13;;;2.15;;
63312;SDS011;49442;45.640;13.812;2022-09-06T16:44:11;2.75;;;1.90;;
63312;SDS011;49442;45.640;13.812;2022-09-06T16:46:40;9.40;;;2.53;;
63312;SDS011;49442;45.640;13.812;2022-09-06T16:49:06;3.75;;;2.13;;
63312;SDS011;49442;45.640;13.812;2022-09-06T16:51:32;4.45;;;2.22;;
63312;SDS011;49442;45.640;13.812;2022-09-06T16:53:58;8.20;;;2.53;;
63312;SDS011;49442;45.640;13.812;2022-09-06T16:56:25;2.97;;;1.80;;